Dallas, Texas
Traffic Map
Current Weather Conditions
Dallas, Texas
Few Clouds
Few Clouds
66°
Feels Like: 66°
Wind Chill: 66° Ceiling: Unl
Heat Index: 66° Visibility: 10mi
Dew Point: 33° Wind: 18mph
Humidity: 29% Direction: 320° (NW)
Pressure: 30.08in Gusts: 0mph
Raw Report DataKDAL 262153Z 32016KT 10SM FEW250 19/01 A3008 RMK AO2 SLP182 T01890006
Traffic Incident Summary
Active as of:
Severity:
Category:
InformationThere was an issue retrieving the traffic information for this location. Please try a different location or try again shortly.
Advertisements
Track Severe Weather on mobile